Time;durP1;ratioP1;P1;durP2;ratioP2;P2;SDS_P1;SDS_P2;PMS_P1;PMS_P2;Temp;Humidity;BMP_temperature;BMP_pressure;BME280_temperature;BME280_humidity;BME280_pressure;Samples;Min_cycle;Max_cycle;Signal;HPM_P1;HPM_P2
2021/08/06 00:00:58;;;;;;;3.35;2.30;;;20.80;99.90;;;;;;4148984;28;20042;-71
2021/08/06 00:02:59;;;;;;;4.65;2.13;;;20.80;99.90;;;;;;4160634;28;20131;-71
2021/08/06 00:05:00;;;;;;;3.90;2.65;;;20.70;99.90;;;;;;4145064;28;20042;-71
2021/08/06 00:07:01;;;;;;;2.90;2.17;;;20.70;99.90;;;;;;4136634;28;20498;-71
2021/08/06 00:09:01;;;;;;;3.75;2.45;;;20.70;99.90;;;;;;4158381;28;20037;-71
2021/08/06 00:11:03;;;;;;;4.57;2.45;;;20.70;99.90;;;;;;4159798;28;20110;-71
2021/08/06 00:13:04;;;;;;;4.88;2.38;;;20.70;99.90;;;;;;4154744;28;20500;-71
2021/08/06 00:15:06;;;;;;;3.53;2.47;;;20.70;99.90;;;;;;4159444;28;20033;-71
2021/08/06 00:17:06;;;;;;;8.57;2.92;;;20.70;99.90;;;;;;4159137;28;20307;-71
2021/08/06 00:19:07;;;;;;;8.48;2.47;;;20.60;99.90;;;;;;4161172;28;20037;-71
2021/08/06 00:21:07;;;;;;;4.85;2.63;;;20.60;99.90;;;;;;4164546;28;20500;-71
2021/08/06 00:23:08;;;;;;;2.83;2.00;;;20.60;99.90;;;;;;4162894;28;20033;-71
2021/08/06 00:25:09;;;;;;;3.88;2.65;;;20.60;99.90;;;;;;4164867;28;20037;-71
2021/08/06 00:27:10;;;;;;;2.63;1.93;;;20.60;99.90;;;;;;4162787;28;20034;-71
2021/08/06 00:29:11;;;;;;;3.10;2.13;;;20.50;99.90;;;;;;4164731;28;20036;-71
2021/08/06 00:31:12;;;;;;;4.35;2.03;;;20.60;99.90;;;;;;4163766;28;20037;-71
2021/08/06 00:33:12;;;;;;;3.90;2.40;;;20.60;99.90;;;;;;4170938;28;20158;-71
2021/08/06 00:35:13;;;;;;;4.18;2.47;;;20.60;99.90;;;;;;4192037;28;20119;-71
2021/08/06 00:37:14;;;;;;;5.10;2.10;;;20.50;99.90;;;;;;4163432;28;20103;-71
2021/08/06 00:39:14;;;;;;;2.10;1.90;;;20.60;99.90;;;;;;4160607;28;20041;-71
2021/08/06 00:41:15;;;;;;;2.50;2.05;;;20.60;99.90;;;;;;4163817;28;20238;-71
2021/08/06 00:43:16;;;;;;;2.30;1.83;;;20.50;99.90;;;;;;4160853;28;20033;-71
2021/08/06 00:45:17;;;;;;;2.72;2.08;;;20.50;99.90;;;;;;4159990;28;20042;-71
2021/08/06 00:47:17;;;;;;;3.00;2.03;;;20.50;99.90;;;;;;4162667;28;20387;-71
2021/08/06 00:49:19;;;;;;;3.63;2.25;;;20.50;99.90;;;;;;4162203;28;20367;-71
2021/08/06 00:51:19;;;;;;;3.47;2.20;;;20.50;99.90;;;;;;4168096;28;20497;-71
2021/08/06 00:53:21;;;;;;;3.15;2.35;;;20.50;99.90;;;;;;4160964;28;20048;-71
2021/08/06 00:55:22;;;;;;;4.43;2.55;;;20.60;99.90;;;;;;4163198;28;20037;-71
2021/08/06 00:57:23;;;;;;;3.85;2.35;;;20.50;99.90;;;;;;4164615;28;20040;-71
2021/08/06 00:59:23;;;;;;;6.05;2.60;;;20.50;99.90;;;;;;4158974;28;20067;-71
2021/08/06 01:01:27;;;;;;;3.80;2.30;;;20.50;99.90;;;;;;4161713;28;20041;-71
2021/08/06 01:03:36;;;;;;;3.53;2.25;;;20.50;99.90;;;;;;4157446;28;20571;-71
2021/08/06 01:05:48;;;;;;;4.03;2.50;;;20.50;99.90;;;;;;4167869;28;20500;-71
2021/08/06 01:08:17;;;;;;;2.38;1.88;;;20.50;99.90;;;;;;4158575;28;20044;-71
2021/08/06 01:10:22;;;;;;;4.05;2.45;;;20.60;99.90;;;;;;4147426;28;20045;-71
2021/08/06 01:12:30;;;;;;;3.92;2.10;;;20.60;99.90;;;;;;4152776;28;20034;-71
2021/08/06 01:14:35;;;;;;;3.30;2.10;;;20.60;99.90;;;;;;4131179;28;20033;-71
2021/08/06 01:16:36;;;;;;;3.08;2.40;;;20.60;99.90;;;;;;4139962;28;20042;-71
2021/08/06 01:18:46;;;;;;;2.75;2.08;;;20.60;99.90;;;;;;4189291;28;20326;-71
2021/08/06 01:20:57;;;;;;;2.65;1.65;;;20.60;99.90;;;;;;4156345;28;20030;-71
2021/08/06 01:23:02;;;;;;;4.47;2.17;;;20.60;99.90;;;;;;4141149;28;20034;-71
2021/08/06 01:25:07;;;;;;;3.08;2.03;;;20.60;99.90;;;;;;4142145;28;20041;-71
2021/08/06 01:27:08;;;;;;;6.97;2.65;;;20.60;99.90;;;;;;4143222;28;20048;-71
2021/08/06 01:29:09;;;;;;;4.32;2.10;;;20.60;99.90;;;;;;4142849;28;20495;-71
2021/08/06 01:31:10;;;;;;;3.40;2.05;;;20.60;99.90;;;;;;4141223;28;20423;-71
2021/08/06 01:33:13;;;;;;;3.88;2.20;;;20.60;99.90;;;;;;4141513;28;20064;-71
2021/08/06 01:35:13;;;;;;;4.03;2.17;;;20.60;99.90;;;;;;4142815;28;20048;-71
2021/08/06 01:37:14;;;;;;;2.80;1.95;;;20.60;99.90;;;;;;4140424;28;20057;-71
2021/08/06 01:39:16;;;;;;;2.78;2.10;;;20.60;99.90;;;;;;4152025;28;20046;-71
2021/08/06 01:41:31;;;;;;;2.40;1.83;;;20.60;99.90;;;;;;4152029;28;20045;-71
2021/08/06 01:43:42;;;;;;;4.78;1.95;;;20.60;99.90;;;;;;4176080;28;20044;-71
2021/08/06 01:45:45;;;;;;;4.03;1.95;;;20.60;99.90;;;;;;4140875;28;20045;-71
2021/08/06 01:47:51;;;;;;;3.80;2.50;;;20.50;99.90;;;;;;4147962;28;20052;-71
2021/08/06 01:50:05;;;;;;;2.38;2.00;;;20.50;99.90;;;;;;4156452;28;20396;-71
2021/08/06 01:52:11;;;;;;;2.40;1.85;;;20.50;99.90;;;;;;4155344;28;20157;-71
2021/08/06 01:54:13;;;;;;;4.90;1.90;;;20.60;99.90;;;;;;4158330;28;20050;-71
2021/08/06 01:56:18;;;;;;;5.25;2.20;;;20.50;99.90;;;;;;4144256;28;20042;-71
2021/08/06 01:58:21;;;;;;;2.17;1.80;;;20.50;99.90;;;;;;4139593;28;20030;-71
2021/08/06 02:00:21;;;;;;;3.90;2.10;;;20.50;99.90;;;;;;4137314;28;20034;-71
2021/08/06 02:02:22;;;;;;;3.15;2.10;;;20.50;99.90;;;;;;4140847;28;20512;-71
2021/08/06 02:04:24;;;;;;;3.20;2.10;;;20.50;99.90;;;;;;4139231;28;20112;-71
2021/08/06 02:06:25;;;;;;;2.70;2.03;;;20.40;99.90;;;;;;4140203;28;20069;-71
2021/08/06 02:08:26;;;;;;;2.53;2.03;;;20.50;99.90;;;;;;4141441;28;20399;-71
2021/08/06 02:10:29;;;;;;;2.97;1.90;;;20.50;99.90;;;;;;4140836;28;20037;-71
2021/08/06 02:12:30;;;;;;;3.15;2.35;;;20.50;99.90;;;;;;4156438;28;20364;-71
2021/08/06 02:14:30;;;;;;;3.00;1.95;;;20.50;99.90;;;;;;4155210;28;20030;-71
2021/08/06 02:16:31;;;;;;;2.78;2.10;;;20.50;99.90;;;;;;4158319;28;20053;-71
2021/08/06 02:18:32;;;;;;;2.75;1.80;;;20.40;99.90;;;;;;4147113;28;20042;-71
2021/08/06 02:20:34;;;;;;;3.03;2.03;;;20.40;99.90;;;;;;4138897;28;20029;-71
2021/08/06 02:22:36;;;;;;;3.17;2.30;;;20.40;99.90;;;;;;4152702;28;20048;-71
2021/08/06 02:24:39;;;;;;;3.08;2.22;;;20.40;99.90;;;;;;4160478;28;20518;-71
2021/08/06 02:26:44;;;;;;;2.78;1.80;;;20.30;99.90;;;;;;4190095;28;20028;-71
2021/08/06 02:28:46;;;;;;;3.28;2.10;;;20.40;99.90;;;;;;4189694;28;20032;-71
2021/08/06 02:30:47;;;;;;;4.10;1.90;;;20.30;99.90;;;;;;4160551;28;20355;-71
2021/08/06 02:32:48;;;;;;;2.85;1.83;;;20.30;99.90;;;;;;4140698;28;20382;-71
2021/08/06 02:34:50;;;;;;;2.90;1.83;;;20.30;99.90;;;;;;4140622;28;20034;-71
2021/08/06 02:36:52;;;;;;;4.60;2.25;;;20.30;99.90;;;;;;4141899;28;20048;-71
2021/08/06 02:38:57;;;;;;;4.85;2.38;;;20.30;99.90;;;;;;4158545;28;20030;-71
2021/08/06 02:40:57;;;;;;;3.15;2.05;;;20.30;99.90;;;;;;4139272;28;20038;-71
2021/08/06 02:42:58;;;;;;;2.30;2.00;;;20.20;99.90;;;;;;4141345;28;20079;-71
2021/08/06 02:44:59;;;;;;;3.78;2.20;;;20.20;99.90;;;;;;4157255;28;20050;-71
2021/08/06 02:47:00;;;;;;;2.92;1.80;;;20.10;99.90;;;;;;4140447;28;20566;-71
2021/08/06 02:49:01;;;;;;;4.30;2.00;;;19.90;99.90;;;;;;4140304;28;20123;-70
2021/08/06 02:51:01;;;;;;;3.72;1.98;;;19.80;99.90;;;;;;4139756;28;20076;-70
2021/08/06 02:53:02;;;;;;;2.78;1.85;;;19.70;99.90;;;;;;4140792;28;20046;-71
2021/08/06 02:55:03;;;;;;;4.38;2.05;;;19.60;99.90;;;;;;4171381;28;20057;-71
2021/08/06 02:57:03;;;;;;;3.10;2.00;;;19.70;99.90;;;;;;4139983;28;20509;-70
2021/08/06 02:59:04;;;;;;;2.45;1.90;;;19.60;99.90;;;;;;4151454;28;20044;-70
2021/08/06 03:01:05;;;;;;;3.17;2.05;;;19.50;99.90;;;;;;4157307;28;20508;-70
2021/08/06 03:03:06;;;;;;;3.15;1.50;;;19.60;99.90;;;;;;4157815;28;20060;-70
2021/08/06 03:05:07;;;;;;;2.42;1.90;;;19.50;99.90;;;;;;4155923;28;20109;-71
2021/08/06 03:07:07;;;;;;;2.63;1.90;;;19.50;99.90;;;;;;4191358;28;20051;-70
2021/08/06 03:09:08;;;;;;;2.97;1.95;;;19.60;99.90;;;;;;4141805;28;20033;-70
2021/08/06 03:11:09;;;;;;;2.00;1.85;;;19.60;99.90;;;;;;4141136;28;20042;-70
2021/08/06 03:13:09;;;;;;;2.40;1.88;;;19.60;99.90;;;;;;4139091;28;20048;-70
2021/08/06 03:15:10;;;;;;;2.33;1.80;;;19.50;99.90;;;;;;4139563;28;20315;-71
2021/08/06 03:17:11;;;;;;;2.33;1.88;;;19.50;99.90;;;;;;4139336;28;20084;-70
2021/08/06 03:19:11;;;;;;;3.80;2.20;;;19.50;99.90;;;;;;4140049;28;20451;-70
2021/08/06 03:21:12;;;;;;;2.45;2.03;;;19.40;99.90;;;;;;4142016;28;20045;-70
2021/08/06 03:23:13;;;;;;;2.78;1.70;;;19.50;99.90;;;;;;4142918;28;20022;-70
2021/08/06 03:25:13;;;;;;;2.60;1.98;;;19.50;99.90;;;;;;4141704;28;20172;-70
2021/08/06 03:27:14;;;;;;;2.92;2.00;;;19.50;99.90;;;;;;4145549;28;20030;-70
2021/08/06 03:29:15;;;;;;;3.22;2.00;;;19.40;99.90;;;;;;4143050;28;20402;-70
2021/08/06 03:31:15;;;;;;;5.53;2.30;;;19.40;99.90;;;;;;4146430;28;20045;-70
2021/08/06 03:33:16;;;;;;;3.85;2.00;;;19.40;99.90;;;;;;4160902;28;20041;-70
2021/08/06 03:35:17;;;;;;;4.35;2.00;;;19.40;99.90;;;;;;4159856;28;20044;-70
2021/08/06 03:37:18;;;;;;;2.95;1.88;;;19.40;99.90;;;;;;4156755;28;20044;-70
2021/08/06 03:39:18;;;;;;;2.35;1.83;;;19.40;99.90;;;;;;4142502;28;20088;-70
2021/08/06 03:41:19;;;;;;;2.13;1.73;;;19.40;99.90;;;;;;4142008;28;20041;-70
2021/08/06 03:43:20;;;;;;;1.98;1.73;;;19.40;99.90;;;;;;4142570;28;20042;-70
2021/08/06 03:45:20;;;;;;;2.10;1.80;;;19.40;99.90;;;;;;4141015;28;20505;-70
2021/08/06 03:47:21;;;;;;;2.20;1.70;;;19.40;99.90;;;;;;4142712;28;20034;-70
2021/08/06 03:49:22;;;;;;;2.33;1.88;;;19.40;99.90;;;;;;4143025;28;20064;-70
2021/08/06 03:51:22;;;;;;;3.60;2.10;;;19.40;99.90;;;;;;4142423;28;20045;-70
2021/08/06 03:53:23;;;;;;;2.47;1.98;;;19.50;99.90;;;;;;4140206;28;20107;-70
2021/08/06 03:55:23;;;;;;;3.08;1.67;;;19.40;99.90;;;;;;4142106;28;20070;-70
2021/08/06 03:57:24;;;;;;;3.78;2.03;;;19.40;99.90;;;;;;4142904;28;20375;-70
2021/08/06 03:59:25;;;;;;;4.45;2.13;;;19.40;99.90;;;;;;4143402;28;20437;-70
2021/08/06 04:01:25;;;;;;;3.40;1.92;;;19.30;99.90;;;;;;4153927;28;20498;-70
2021/08/06 04:03:26;;;;;;;2.63;2.00;;;19.30;99.90;;;;;;4143357;28;20029;-70
2021/08/06 04:05:27;;;;;;;3.15;2.03;;;19.30;99.90;;;;;;4144014;28;20041;-70
2021/08/06 04:07:27;;;;;;;3.17;1.83;;;19.30;99.90;;;;;;4142458;28;20037;-70
2021/08/06 04:09:28;;;;;;;3.83;2.38;;;19.30;99.90;;;;;;4143358;28;20034;-70
2021/08/06 04:11:28;;;;;;;4.43;2.22;;;19.20;99.90;;;;;;4133903;28;20030;-70
2021/08/06 04:13:29;;;;;;;2.65;1.70;;;19.20;99.90;;;;;;4143816;28;20034;-70
2021/08/06 04:15:30;;;;;;;3.13;1.80;;;19.20;99.90;;;;;;4144000;28;20117;-70
2021/08/06 04:17:30;;;;;;;3.42;2.15;;;19.20;99.90;;;;;;4143611;28;20061;-70
2021/08/06 04:19:31;;;;;;;5.20;2.05;;;19.30;99.90;;;;;;4144035;28;20030;-70
2021/08/06 04:21:32;;;;;;;3.55;1.85;;;19.20;99.90;;;;;;4141708;28;20034;-70
2021/08/06 04:23:32;;;;;;;3.75;2.13;;;19.20;99.90;;;;;;4174273;28;20021;-70
2021/08/06 04:25:33;;;;;;;5.55;1.90;;;19.20;99.90;;;;;;4143933;28;20048;-70
2021/08/06 04:27:34;;;;;;;4.65;2.15;;;19.20;99.90;;;;;;4140786;28;20038;-70
2021/08/06 04:29:34;;;;;;;5.43;2.35;;;19.20;99.90;;;;;;4143589;28;20038;-70
2021/08/06 04:31:35;;;;;;;2.80;1.80;;;19.10;99.90;;;;;;4143756;28;20041;-70
2021/08/06 04:33:36;;;;;;;5.55;2.40;;;19.10;99.90;;;;;;4142691;28;20353;-70
2021/08/06 04:35:36;;;;;;;5.80;1.95;;;19.20;99.90;;;;;;4143871;28;20125;-70
2021/08/06 04:37:51;;;;;;;4.43;1.83;;;19.20;99.90;;;;;;4141454;28;20414;-71
2021/08/06 04:39:52;;;;;;;4.05;2.05;;;19.20;99.90;;;;;;4143262;28;20062;-70
2021/08/06 04:41:53;;;;;;;2.75;1.83;;;19.20;99.90;;;;;;4142254;28;20069;-70
2021/08/06 04:43:53;;;;;;;4.72;2.05;;;19.20;99.90;;;;;;4145985;28;20489;-70
2021/08/06 04:45:54;;;;;;;3.92;2.58;;;19.10;99.90;;;;;;4143948;28;20501;-70
2021/08/06 04:47:55;;;;;;;3.20;2.25;;;19.10;99.90;;;;;;4148691;28;20040;-70
2021/08/06 04:49:56;;;;;;;3.83;2.00;;;19.00;99.90;;;;;;4140325;28;20037;-70
2021/08/06 04:51:56;;;;;;;3.08;1.98;;;19.00;99.90;;;;;;4142325;28;20034;-70
2021/08/06 04:53:57;;;;;;;3.83;2.25;;;19.00;99.90;;;;;;4142790;28;20479;-70
2021/08/06 04:55:57;;;;;;;4.78;2.33;;;19.00;99.90;;;;;;4158026;28;20041;-70
2021/08/06 04:57:58;;;;;;;4.57;2.08;;;19.00;99.90;;;;;;4147760;28;20030;-70
2021/08/06 04:59:58;;;;;;;3.78;2.22;;;19.00;99.90;;;;;;4142226;28;20037;-70
2021/08/06 05:01:59;;;;;;;3.58;1.98;;;19.00;99.90;;;;;;4139917;28;20439;-70
2021/08/06 05:03:59;;;;;;;2.33;1.95;;;19.00;99.90;;;;;;4142818;28;20042;-70
2021/08/06 05:06:00;;;;;;;3.10;1.98;;;18.90;99.90;;;;;;4157702;28;20521;-70
2021/08/06 05:08:00;;;;;;;6.40;2.17;;;19.00;99.90;;;;;;4159182;28;20034;-70
2021/08/06 05:10:02;;;;;;;3.08;1.90;;;19.00;99.90;;;;;;4142862;28;20120;-70
2021/08/06 05:12:03;;;;;;;4.15;2.30;;;19.00;99.90;;;;;;4159125;28;20033;-70
2021/08/06 05:14:03;;;;;;;2.10;1.90;;;19.00;99.90;;;;;;4158744;28;20029;-70
2021/08/06 05:16:04;;;;;;;4.43;2.10;;;19.00;99.90;;;;;;4164275;28;20042;-71
2021/08/06 05:18:05;;;;;;;4.90;2.50;;;18.90;99.90;;;;;;4165876;28;20083;-70
2021/08/06 05:20:06;;;;;;;4.35;2.45;;;18.90;99.90;;;;;;4158588;28;20116;-70
2021/08/06 05:22:07;;;;;;;2.95;2.10;;;19.00;99.90;;;;;;4158032;28;20044;-70
2021/08/06 05:24:07;;;;;;;3.17;2.10;;;18.80;99.90;;;;;;4152818;28;20033;-71
2021/08/06 05:26:08;;;;;;;3.95;2.30;;;18.80;99.90;;;;;;4165341;28;20481;-71
2021/08/06 05:28:08;;;;;;;3.38;2.10;;;18.80;99.90;;;;;;4148280;28;20441;-71
2021/08/06 05:30:10;;;;;;;6.85;2.20;;;18.90;99.90;;;;;;4142613;28;20185;-71
2021/08/06 05:32:11;;;;;;;3.83;2.35;;;18.90;99.90;;;;;;4142166;28;20490;-71
2021/08/06 05:34:11;;;;;;;2.95;2.05;;;18.90;99.90;;;;;;4142767;28;20092;-71
2021/08/06 05:36:12;;;;;;;3.20;2.10;;;18.90;99.90;;;;;;4142531;28;20038;-71
2021/08/06 05:38:12;;;;;;;3.28;2.10;;;18.90;99.90;;;;;;4142854;28;20084;-71
2021/08/06 05:40:14;;;;;;;3.08;2.42;;;18.90;99.90;;;;;;4142270;28;20042;-71
2021/08/06 05:42:14;;;;;;;3.35;2.42;;;19.00;99.90;;;;;;4142948;28;20030;-71
2021/08/06 05:44:15;;;;;;;3.55;2.33;;;18.90;99.90;;;;;;4140881;28;20057;-71
2021/08/06 05:46:15;;;;;;;2.80;2.10;;;18.90;99.90;;;;;;4142671;28;20110;-71
2021/08/06 05:48:17;;;;;;;3.47;2.30;;;18.90;99.90;;;;;;4141783;28;20060;-71
2021/08/06 05:50:19;;;;;;;2.65;1.92;;;19.00;99.90;;;;;;4141079;28;20026;-71
2021/08/06 05:52:20;;;;;;;2.60;2.20;;;18.90;99.90;;;;;;4142078;28;20037;-71
2021/08/06 05:54:20;;;;;;;3.10;2.00;;;19.00;99.90;;;;;;4140952;28;20281;-71
2021/08/06 05:56:21;;;;;;;2.78;2.00;;;19.00;99.90;;;;;;4142543;28;20034;-71
2021/08/06 05:58:22;;;;;;;3.00;2.17;;;19.10;99.90;;;;;;4148616;28;20030;-71
2021/08/06 06:00:22;;;;;;;3.38;2.22;;;19.10;99.90;;;;;;4150567;28;20052;-71
2021/08/06 06:02:23;;;;;;;3.38;2.05;;;19.10;99.90;;;;;;4143105;28;20646;-71
2021/08/06 06:04:23;;;;;;;3.55;1.92;;;19.10;99.90;;;;;;4142102;28;20034;-71
2021/08/06 06:06:24;;;;;;;3.45;2.25;;;19.10;99.90;;;;;;4141198;28;20105;-71
2021/08/06 06:08:26;;;;;;;3.53;1.90;;;19.10;99.90;;;;;;4141717;28;20029;-71
2021/08/06 06:10:27;;;;;;;5.72;2.50;;;19.10;99.90;;;;;;4142027;28;20026;-71
2021/08/06 06:12:27;;;;;;;4.32;2.20;;;19.20;99.90;;;;;;4141996;28;20088;-71
2021/08/06 06:14:28;;;;;;;1.90;1.70;;;19.10;99.90;;;;;;4140694;28;20029;-71
2021/08/06 06:16:28;;;;;;;2.60;1.95;;;19.20;99.90;;;;;;4140156;28;20097;-71
2021/08/06 06:18:29;;;;;;;3.33;1.95;;;19.20;99.90;;;;;;4141975;28;20025;-71
2021/08/06 06:20:30;;;;;;;3.90;2.10;;;19.20;99.90;;;;;;4141136;28;20451;-71
2021/08/06 06:22:31;;;;;;;5.35;2.03;;;19.20;99.90;;;;;;4124018;28;20407;-71
2021/08/06 06:24:32;;;;;;;3.15;2.03;;;19.20;99.90;;;;;;4142000;28;20333;-71
2021/08/06 06:26:33;;;;;;;3.53;2.00;;;19.20;99.90;;;;;;4141096;28;20080;-71
2021/08/06 06:28:34;;;;;;;1.73;1.60;;;19.10;99.90;;;;;;4142331;28;20437;-71
2021/08/06 06:30:35;;;;;;;2.90;2.15;;;19.20;99.90;;;;;;4142025;28;20121;-71
2021/08/06 06:32:35;;;;;;;3.80;1.90;;;19.20;99.90;;;;;;4139923;28;20514;-71
2021/08/06 06:34:36;;;;;;;5.28;2.20;;;19.20;99.90;;;;;;4142288;28;20037;-71
2021/08/06 06:36:36;;;;;;;3.70;1.75;;;19.10;99.90;;;;;;4146777;28;20128;-71
2021/08/06 06:38:37;;;;;;;3.70;2.00;;;19.10;99.90;;;;;;4158658;28;20121;-71
2021/08/06 06:40:37;;;;;;;3.53;1.70;;;19.10;99.90;;;;;;4160620;28;20501;-71
2021/08/06 06:42:38;;;;;;;3.08;1.80;;;19.10;99.90;;;;;;4143444;28;20398;-71
2021/08/06 06:44:39;;;;;;;2.42;1.92;;;19.10;99.90;;;;;;4140693;28;20368;-71
2021/08/06 06:46:39;;;;;;;3.20;1.83;;;19.10;99.90;;;;;;4139439;28;20401;-71
2021/08/06 06:48:40;;;;;;;3.95;1.77;;;19.10;99.90;;;;;;4140673;28;20034;-71
2021/08/06 06:50:40;;;;;;;3.33;2.20;;;19.20;99.90;;;;;;4139092;28;20041;-71
2021/08/06 06:52:42;;;;;;;2.17;1.90;;;19.10;99.90;;;;;;4137437;28;20364;-71
2021/08/06 06:54:43;;;;;;;2.55;1.50;;;19.10;99.90;;;;;;4142252;28;20514;-71
2021/08/06 06:56:43;;;;;;;2.92;1.95;;;19.20;99.90;;;;;;4141670;28;20037;-71
2021/08/06 06:58:44;;;;;;;3.35;1.95;;;19.20;99.90;;;;;;4142056;28;20089;-71
2021/08/06 07:00:44;;;;;;;2.47;1.63;;;19.20;99.90;;;;;;4141696;28;20034;-71
2021/08/06 07:02:45;;;;;;;4.35;1.60;;;19.20;99.90;;;;;;4140096;28;20033;-71
2021/08/06 07:04:45;;;;;;;5.10;1.83;;;19.20;99.90;;;;;;4140550;28;20105;-71
2021/08/06 07:06:47;;;;;;;3.17;1.95;;;19.20;99.90;;;;;;4141530;28;20045;-71
2021/08/06 07:08:48;;;;;;;3.90;1.80;;;19.20;99.90;;;;;;4140486;28;20490;-71
2021/08/06 07:10:48;;;;;;;2.95;1.70;;;19.20;99.90;;;;;;4142154;28;22229;-76
2021/08/06 07:12:50;;;;;;;1.65;1.55;;;19.20;99.90;;;;;;4138942;28;20046;-71
2021/08/06 07:14:50;;;;;;;3.90;1.80;;;19.30;99.90;;;;;;4168614;28;20036;-71
2021/08/06 07:16:51;;;;;;;3.20;1.80;;;19.30;99.90;;;;;;4142258;28;20044;-71
2021/08/06 07:18:51;;;;;;;3.20;2.08;;;19.30;99.90;;;;;;4141493;28;20034;-71
2021/08/06 07:20:52;;;;;;;5.25;1.70;;;19.30;99.90;;;;;;4141479;28;20113;-71
2021/08/06 07:22:56;;;;;;;3.53;1.88;;;19.30;99.90;;;;;;4140393;28;20033;-71
2021/08/06 07:24:57;;;;;;;2.42;1.60;;;19.30;99.90;;;;;;4139894;28;20157;-71
2021/08/06 07:26:58;;;;;;;2.67;1.40;;;19.40;99.90;;;;;;4140254;28;20465;-71
2021/08/06 07:28:58;;;;;;;10.77;6.22;;;19.50;99.90;;;;;;4139701;28;20030;-72
2021/08/06 07:30:59;;;;;;;7.50;2.50;;;19.50;99.90;;;;;;4137054;28;20042;-71
2021/08/06 07:32:59;;;;;;;3.67;1.95;;;19.60;99.90;;;;;;4192764;28;20503;-71
2021/08/06 07:35:00;;;;;;;2.50;1.60;;;19.70;99.90;;;;;;4164524;28;20037;-71
2021/08/06 07:37:01;;;;;;;3.70;1.60;;;19.60;99.90;;;;;;4156176;28;20035;-71
2021/08/06 07:39:01;;;;;;;2.90;1.60;;;19.70;99.90;;;;;;4138546;28;20034;-71
2021/08/06 07:41:02;;;;;;;5.18;1.20;;;19.60;99.90;;;;;;4142028;28;20260;-71
2021/08/06 07:43:03;;;;;;;1.83;1.20;;;19.70;99.90;;;;;;4140679;28;20062;-71
2021/08/06 07:45:05;;;;;;;2.28;1.40;;;19.70;99.90;;;;;;4142030;28;20030;-71
2021/08/06 07:47:05;;;;;;;1.75;1.20;;;19.60;99.90;;;;;;4140206;28;20117;-71
2021/08/06 07:49:06;;;;;;;2.67;1.55;;;19.60;99.90;;;;;;4140491;28;20033;-71
2021/08/06 07:51:07;;;;;;;1.10;0.90;;;19.50;99.90;;;;;;4139267;28;20336;-71
2021/08/06 07:53:08;;;;;;;2.15;1.25;;;19.50;99.90;;;;;;4141435;28;20084;-71
2021/08/06 07:55:10;;;;;;;0.85;0.73;;;19.50;99.90;;;;;;4123543;28;20050;-71
2021/08/06 07:57:11;;;;;;;2.10;0.90;;;19.40;99.90;;;;;;4140733;28;20046;-71
2021/08/06 07:59:14;;;;;;;1.77;1.10;;;19.40;99.90;;;;;;4141691;28;20037;-71
2021/08/06 08:01:14;;;;;;;;;;;19.40;99.90;;;;;;4140748;28;20042;-71
2021/08/06 08:03:15;;;;;;;2.13;0.88;;;19.40;99.90;;;;;;4141103;28;19943;-71
2021/08/06 08:05:20;;;;;;;2.42;0.65;;;19.40;99.90;;;;;;4140330;28;20038;-71
2021/08/06 08:07:20;;;;;;;1.38;0.70;;;19.40;99.90;;;;;;4139129;28;20045;-71
2021/08/06 08:09:21;;;;;;;1.30;0.82;;;19.40;99.90;;;;;;4143425;28;20113;-71
2021/08/06 08:11:21;;;;;;;2.05;1.05;;;19.40;99.90;;;;;;4143435;28;20267;-71
2021/08/06 08:13:22;;;;;;;1.15;0.88;;;19.40;99.90;;;;;;4142944;28;20042;-71
2021/08/06 08:15:23;;;;;;;1.33;0.88;;;19.40;99.90;;;;;;4143834;28;20099;-71
2021/08/06 08:17:23;;;;;;;1.38;0.90;;;19.40;99.90;;;;;;4144266;28;20087;-71
2021/08/06 08:19:25;;;;;;;1.65;0.85;;;19.50;99.90;;;;;;4143686;28;20321;-71
2021/08/06 08:21:25;;;;;;;2.13;0.68;;;19.50;99.90;;;;;;4144437;28;20462;-71
2021/08/06 08:23:27;;;;;;;1.52;1.02;;;19.50;99.90;;;;;;4141666;28;20121;-71
2021/08/06 08:25:27;;;;;;;1.95;0.93;;;19.50;99.90;;;;;;4142727;28;20061;-71
2021/08/06 08:27:29;;;;;;;1.73;0.90;;;19.50;99.90;;;;;;4143833;28;20042;-71
2021/08/06 08:29:29;;;;;;;2.38;1.02;;;19.50;99.90;;;;;;4144040;28;20033;-71
2021/08/06 08:31:30;;;;;;;1.38;1.00;;;19.50;99.90;;;;;;4143930;28;20119;-71
2021/08/06 08:33:30;;;;;;;2.28;1.05;;;19.60;99.90;;;;;;4149065;28;20044;-71
2021/08/06 08:35:31;;;;;;;1.70;1.08;;;19.70;99.90;;;;;;4144364;28;20506;-71
2021/08/06 08:37:32;;;;;;;1.40;1.17;;;19.70;99.90;;;;;;4160310;28;20409;-72
2021/08/06 08:39:34;;;;;;;3.15;1.30;;;19.80;99.90;;;;;;4159171;28;20034;-71
2021/08/06 08:41:36;;;;;;;1.95;1.40;;;19.80;99.90;;;;;;4148661;28;20030;-72
2021/08/06 08:43:42;;;;;;;1.95;1.13;;;19.90;99.90;;;;;;4142388;28;20092;-72
2021/08/06 08:45:43;;;;;;;2.63;1.10;;;19.90;99.90;;;;;;4143389;28;20038;-72
2021/08/06 08:47:47;;;;;;;2.67;1.15;;;20.00;99.90;;;;;;4143742;28;20038;-71
2021/08/06 08:49:51;;;;;;;4.07;1.58;;;20.00;99.90;;;;;;4143172;28;20045;-71
2021/08/06 08:51:51;;;;;;;3.30;1.45;;;20.10;99.90;;;;;;4141070;28;20034;-72
2021/08/06 08:53:53;;;;;;;5.68;1.30;;;20.20;99.90;;;;;;4142654;28;20037;-72
2021/08/06 08:55:54;;;;;;;2.83;1.42;;;20.20;99.90;;;;;;4141346;28;20033;-71
2021/08/06 08:57:55;;;;;;;4.45;1.60;;;20.20;99.90;;;;;;4142302;28;20030;-72
2021/08/06 08:59:55;;;;;;;2.65;1.38;;;20.20;99.90;;;;;;4142695;28;20034;-72
2021/08/06 09:01:56;;;;;;;3.20;1.38;;;20.20;99.90;;;;;;4143219;28;20172;-72
2021/08/06 09:03:57;;;;;;;2.58;1.52;;;20.20;99.90;;;;;;4143210;28;20120;-72
2021/08/06 09:05:57;;;;;;;1.80;1.63;;;20.20;99.90;;;;;;4143882;28;20044;-72
2021/08/06 09:07:58;;;;;;;3.80;1.85;;;20.30;99.90;;;;;;4141553;28;20050;-72
2021/08/06 09:10:10;;;;;;;3.35;1.98;;;20.30;99.90;;;;;;4146232;28;20080;-72
2021/08/06 09:12:12;;;;;;;3.33;1.67;;;20.30;99.90;;;;;;4158500;28;20100;-72
2021/08/06 09:14:16;;;;;;;3.50;2.05;;;20.40;99.90;;;;;;4156889;28;20037;-72
2021/08/06 09:16:17;;;;;;;5.07;2.28;;;20.50;99.90;;;;;;4157702;28;20098;-71
2021/08/06 09:18:24;;;;;;;2.85;1.60;;;20.50;99.90;;;;;;4153913;28;20073;-71
2021/08/06 09:20:38;;;;;;;2.53;1.73;;;20.60;99.90;;;;;;4144122;28;20506;-72
2021/08/06 09:22:40;;;;;;;3.22;2.00;;;20.60;99.90;;;;;;4138926;28;20410;-71
2021/08/06 09:24:59;;;;;;;3.00;1.65;;;20.60;99.90;;;;;;4142785;28;20448;-71
2021/08/06 09:27:00;;;;;;;5.63;1.88;;;20.70;99.90;;;;;;4146932;28;20121;-71
2021/08/06 09:29:18;;;;;;;2.95;1.67;;;20.70;99.90;;;;;;4153126;28;20411;-72
2021/08/06 09:31:19;;;;;;;3.15;1.80;;;20.70;99.90;;;;;;4155200;28;20422;-71
2021/08/06 09:33:31;;;;;;;2.38;2.08;;;20.70;99.90;;;;;;4141020;28;20042;-72
2021/08/06 09:35:33;;;;;;;4.10;1.77;;;20.70;99.90;;;;;;4142098;28;20042;-72
2021/08/06 09:37:36;;;;;;;3.20;1.70;;;20.70;99.90;;;;;;4142767;28;20026;-72
2021/08/06 09:39:39;;;;;;;3.22;1.75;;;20.80;99.90;;;;;;4142964;28;20033;-72
2021/08/06 09:41:44;;;;;;;2.42;1.50;;;20.80;99.90;;;;;;4141091;28;20084;-72
2021/08/06 09:43:45;;;;;;;2.10;1.42;;;20.80;99.90;;;;;;4141632;28;20490;-72
2021/08/06 09:45:45;;;;;;;4.78;1.60;;;20.80;99.90;;;;;;4143076;28;20162;-72
2021/08/06 09:47:54;;;;;;;4.32;1.55;;;20.80;99.90;;;;;;4125245;28;20046;-72
2021/08/06 09:49:57;;;;;;;4.57;2.00;;;20.80;99.90;;;;;;4138038;28;20111;-72
2021/08/06 09:51:58;;;;;;;1.58;1.30;;;20.70;99.90;;;;;;4141832;28;20474;-72
2021/08/06 09:53:58;;;;;;;3.92;1.60;;;20.70;99.90;;;;;;4141993;28;20032;-72
2021/08/06 09:55:59;;;;;;;4.13;1.70;;;20.80;99.90;;;;;;4141152;28;20033;-72
2021/08/06 09:58:05;;;;;;;4.30;1.52;;;20.70;99.90;;;;;;4143006;28;20030;-72
2021/08/06 10:00:06;;;;;;;6.72;2.25;;;20.70;99.90;;;;;;4143209;28;20294;-72
2021/08/06 10:02:11;;;;;;;3.53;1.60;;;20.80;99.90;;;;;;4142039;28;20026;-72
2021/08/06 10:04:14;;;;;;;2.78;1.27;;;20.80;99.90;;;;;;4142346;28;20042;-72
2021/08/06 10:06:19;;;;;;;6.10;1.98;;;20.90;99.90;;;;;;4142115;28;20049;-72
2021/08/06 10:08:19;;;;;;;1.75;1.45;;;20.90;99.90;;;;;;4141820;28;20041;-72
2021/08/06 10:10:31;;;;;;;3.38;1.90;;;21.00;99.90;;;;;;4142845;28;20038;-72
2021/08/06 10:12:33;;;;;;;4.00;2.03;;;21.00;99.90;;;;;;4140149;28;20503;-72
2021/08/06 10:14:34;;;;;;;4.45;1.85;;;21.00;99.90;;;;;;4143196;28;20361;-72
2021/08/06 10:16:35;;;;;;;5.95;2.10;;;21.00;99.90;;;;;;4142886;28;20113;-72
2021/08/06 10:18:38;;;;;;;3.53;1.70;;;21.00;99.90;;;;;;4142514;28;20034;-72
2021/08/06 10:20:39;;;;;;;2.30;1.20;;;21.00;99.90;;;;;;4142584;28;20042;-72
2021/08/06 10:22:40;;;;;;;4.47;2.03;;;21.10;99.90;;;;;;4142714;28;20038;-72
2021/08/06 10:24:45;;;;;;;3.10;1.70;;;21.10;99.90;;;;;;4141758;28;20062;-72
2021/08/06 10:26:47;;;;;;;2.00;1.50;;;21.10;99.90;;;;;;4141376;28;20030;-72
2021/08/06 10:28:48;;;;;;;6.85;1.60;;;21.20;99.90;;;;;;4140456;28;20030;-72
2021/08/06 10:30:48;;;;;;;3.47;1.40;;;21.30;99.90;;;;;;4142056;28;20170;-72
2021/08/06 10:33:28;;;;;;;1.30;1.13;;;21.20;99.90;;;;;;4142009;28;20029;-72
2021/08/06 10:35:44;;;;;;;1.08;0.95;;;21.20;99.90;;;;;;4139175;28;20482;-72